sensor_id;sensor_type;location;lat;lon;timestamp;pressure;altitude;pressure_sealevel;temperature;humidity
63665;BME280;49820;33.966;73.390;2023-03-18T02:42:30;78794.28;;;8.84;100.00
63665;BME280;49820;33.966;73.390;2023-03-18T02:45:01;78801.53;;;10.23;100.00
63665;BME280;49820;33.966;73.390;2023-03-18T02:47:43;78804.88;;;11.11;100.00
63665;BME280;49820;33.966;73.390;2023-03-18T02:50:13;78789.19;;;11.23;100.00
63665;BME280;49820;33.966;73.390;2023-03-18T02:59:05;78817.63;;;12.11;100.00
63665;BME280;49820;33.966;73.390;2023-03-18T03:01:36;78819.75;;;12.32;100.00
63665;BME280;49820;33.966;73.390;2023-03-18T03:04:30;78826.63;;;12.24;100.00
63665;BME280;49820;33.966;73.390;2023-03-18T03:07:01;78821.84;;;12.29;99.44
63665;BME280;49820;33.966;73.390;2023-03-18T03:09:42;78814.28;;;12.58;97.04
63665;BME280;49820;33.966;73.390;2023-03-18T03:12:13;78821.94;;;12.25;93.46
63665;BME280;49820;33.966;73.390;2023-03-18T03:18:19;78841.91;;;11.27;100.00
63665;BME280;49820;33.966;73.390;2023-03-18T03:20:50;78855.34;;;10.96;100.00
63665;BME280;49820;33.966;73.390;2023-03-18T03:29:38;78863.09;;;9.82;100.00
63665;BME280;49820;33.966;73.390;2023-03-18T03:51:06;78886.13;;;9.28;100.00
63665;BME280;49820;33.966;73.390;2023-03-18T03:53:35;78874.94;;;9.19;100.00
63665;BME280;49820;33.966;73.390;2023-03-18T03:56:05;78870.53;;;9.41;100.00
63665;BME280;49820;33.966;73.390;2023-03-18T03:58:35;78896.53;;;9.77;100.00
63665;BME280;49820;33.966;73.390;2023-03-18T04:01:04;78879.56;;;9.58;100.00
63665;BME280;49820;33.966;73.390;2023-03-18T04:03:34;78899.53;;;9.61;100.00
63665;BME280;49820;33.966;73.390;2023-03-18T04:06:06;78911.56;;;9.58;100.00
63665;BME280;49820;33.966;73.390;2023-03-18T04:08:45;78915.53;;;9.61;100.00
63665;BME280;49820;33.966;73.390;2023-03-18T04:11:15;78914.88;;;9.61;100.00
63665;BME280;49820;33.966;73.390;2023-03-18T04:13:45;78909.38;;;9.32;100.00
63665;BME280;49820;33.966;73.390;2023-03-18T04:16:14;78908.06;;;9.31;100.00
63665;BME280;49820;33.966;73.390;2023-03-18T04:18:46;78920.88;;;9.59;100.00
63665;BME280;49820;33.966;73.390;2023-03-18T04:21:15;78929.88;;;9.78;100.00
63665;BME280;49820;33.966;73.390;2023-03-18T04:23:49;78924.53;;;9.78;100.00
63665;BME280;49820;33.966;73.390;2023-03-18T04:26:20;78932.19;;;9.62;100.00
63665;BME280;49820;33.966;73.390;2023-03-18T04:28:49;78927.47;;;9.64;100.00
63665;BME280;49820;33.966;73.390;2023-03-18T04:31:22;78935.72;;;9.87;100.00
63665;BME280;49820;33.966;73.390;2023-03-18T04:33:53;78927.25;;;10.11;100.00
63665;BME280;49820;33.966;73.390;2023-03-18T04:36:22;78931.59;;;10.29;100.00
63665;BME280;49820;33.966;73.390;2023-03-18T04:38:53;78947.13;;;10.20;100.00
63665;BME280;49820;33.966;73.390;2023-03-18T04:41:23;78933.28;;;10.10;100.00
63665;BME280;49820;33.966;73.390;2023-03-18T04:43:55;78927.88;;;9.79;100.00
63665;BME280;49820;33.966;73.390;2023-03-18T04:46:37;78914.03;;;9.70;100.00
63665;BME280;49820;33.966;73.390;2023-03-18T04:49:08;78952.47;;;9.83;100.00
63665;BME280;49820;33.966;73.390;2023-03-18T04:51:37;78956.09;;;9.66;100.00
63665;BME280;49820;33.966;73.390;2023-03-18T04:54:16;78940.28;;;9.16;100.00
63665;BME280;49820;33.966;73.390;2023-03-18T05:35:11;78982.81;;;7.75;100.00
63665;BME280;49820;33.966;73.390;2023-03-18T05:48:41;78978.16;;;7.76;100.00
63665;BME280;49820;33.966;73.390;2023-03-18T05:51:12;79000.47;;;8.01;100.00
63665;BME280;49820;33.966;73.390;2023-03-18T05:53:41;78994.41;;;8.09;100.00
63665;BME280;49820;33.966;73.390;2023-03-18T05:56:19;78983.44;;;8.35;100.00
63665;BME280;49820;33.966;73.390;2023-03-18T05:58:52;78968.53;;;8.54;100.00
63665;BME280;49820;33.966;73.390;2023-03-18T06:01:45;78984.72;;;8.38;100.00
63665;BME280;49820;33.966;73.390;2023-03-18T06:04:16;78997.53;;;8.23;100.00
63665;BME280;49820;33.966;73.390;2023-03-18T06:06:47;78988.31;;;8.16;100.00
63665;BME280;49820;33.966;73.390;2023-03-18T06:09:17;78975.50;;;8.29;100.00
63665;BME280;49820;33.966;73.390;2023-03-18T06:11:47;78995.19;;;8.52;100.00
63665;BME280;49820;33.966;73.390;2023-03-18T06:14:16;78972.38;;;8.65;100.00
63665;BME280;49820;33.966;73.390;2023-03-18T06:16:45;78978.25;;;8.74;100.00
63665;BME280;49820;33.966;73.390;2023-03-18T06:19:20;78998.47;;;9.02;100.00
63665;BME280;49820;33.966;73.390;2023-03-18T06:21:50;78994.50;;;9.01;100.00
63665;BME280;49820;33.966;73.390;2023-03-18T07:11:27;78971.03;;;7.58;100.00
63665;BME280;49820;33.966;73.390;2023-03-18T07:14:02;78946.31;;;7.70;100.00
63665;BME280;49820;33.966;73.390;2023-03-18T07:16:34;78947.81;;;8.10;100.00
63665;BME280;49820;33.966;73.390;2023-03-18T07:31:46;78946.09;;;8.41;100.00
63665;BME280;49820;33.966;73.390;2023-03-18T07:34:17;78935.59;;;8.76;100.00
63665;BME280;49820;33.966;73.390;2023-03-18T07:36:46;78941.66;;;9.13;100.00
63665;BME280;49820;33.966;73.390;2023-03-18T07:39:15;78915.19;;;9.42;100.00
63665;BME280;49820;33.966;73.390;2023-03-18T07:41:45;78936.22;;;9.95;100.00
63665;BME280;49820;33.966;73.390;2023-03-18T07:44:20;78913.22;;;9.78;100.00
63665;BME280;49820;33.966;73.390;2023-03-18T07:46:50;78914.19;;;9.97;100.00
63665;BME280;49820;33.966;73.390;2023-03-18T07:49:19;78931.63;;;9.92;100.00
63665;BME280;49820;33.966;73.390;2023-03-18T07:51:50;78928.16;;;9.63;100.00
63665;BME280;49820;33.966;73.390;2023-03-18T07:54:20;78907.53;;;9.61;100.00
63665;BME280;49820;33.966;73.390;2023-03-18T07:56:50;78917.66;;;9.89;100.00
63665;BME280;49820;33.966;73.390;2023-03-18T07:59:20;78915.84;;;9.80;100.00
63665;BME280;49820;33.966;73.390;2023-03-18T08:01:49;78896.59;;;9.38;100.00
63665;BME280;49820;33.966;73.390;2023-03-18T08:04:21;78907.94;;;9.37;100.00
63665;BME280;49820;33.966;73.390;2023-03-18T08:06:51;78917.56;;;9.19;100.00
63665;BME280;49820;33.966;73.390;2023-03-18T08:09:20;78908.38;;;9.12;100.00
63665;BME280;49820;33.966;73.390;2023-03-18T09:34:26;78810.84;;;8.04;100.00
63665;BME280;49820;33.966;73.390;2023-03-18T09:36:55;78800.38;;;7.94;100.00
63665;BME280;49820;33.966;73.390;2023-03-18T09:39:26;78803.50;;;8.07;100.00
63665;BME280;49820;33.966;73.390;2023-03-18T10:25:58;78769.66;;;7.07;100.00
63665;BME280;49820;33.966;73.390;2023-03-18T10:38:47;78758.56;;;7.44;100.00
63665;BME280;49820;33.966;73.390;2023-03-18T10:41:35;78754.25;;;7.65;100.00
63665;BME280;49820;33.966;73.390;2023-03-18T10:44:19;78743.22;;;7.48;100.00
63665;BME280;49820;33.966;73.390;2023-03-18T10:47:11;78751.59;;;7.67;100.00
63665;BME280;49820;33.966;73.390;2023-03-18T10:49:47;78735.34;;;7.85;100.00
63665;BME280;49820;33.966;73.390;2023-03-18T10:52:40;78730.19;;;7.75;100.00
63665;BME280;49820;33.966;73.390;2023-03-18T10:55:19;78725.81;;;7.55;100.00
63665;BME280;49820;33.966;73.390;2023-03-18T11:11:31;78725.16;;;7.10;100.00
63665;BME280;49820;33.966;73.390;2023-03-18T11:14:04;78739.00;;;7.16;100.00
63665;BME280;49820;33.966;73.390;2023-03-18T11:19:37;78710.22;;;7.33;100.00
63665;BME280;49820;33.966;73.390;2023-03-18T11:25:19;78718.59;;;7.52;100.00
63665;BME280;49820;33.966;73.390;2023-03-18T11:28:18;78711.16;;;7.58;100.00
63665;BME280;49820;33.966;73.390;2023-03-18T11:30:55;78705.94;;;7.52;100.00
63665;BME280;49820;33.966;73.390;2023-03-18T11:33:31;78706.13;;;7.38;100.00
63665;BME280;49820;33.966;73.390;2023-03-18T11:36:06;78713.38;;;7.44;100.00
63665;BME280;49820;33.966;73.390;2023-03-18T11:38:38;78719.31;;;7.46;100.00
63665;BME280;49820;33.966;73.390;2023-03-18T11:41:23;78714.81;;;7.37;100.00
63665;BME280;49820;33.966;73.390;2023-03-18T11:43:58;78711.31;;;7.48;100.00
63665;BME280;49820;33.966;73.390;2023-03-18T11:46:33;78701.47;;;7.39;100.00
63665;BME280;49820;33.966;73.390;2023-03-18T11:49:10;78690.94;;;7.35;100.00
63665;BME280;49820;33.966;73.390;2023-03-18T12:03:04;78728.34;;;7.65;100.00
